Aviation Digital Data Service (ADDS)

Output produced by METARs form (2314 UTC 21 May 2022)
found at http://www.aviationweather.gov/metar/data/
 
TAF MHLC 212300Z 2200/2224 08012KT 9999 FEW025 BKN080 TX31/2221Z TN24/2212Z 
     BECMG 2206/2208 16005KT 8000 VCSH BKN022 BKN070 
     BECMG 2210/2212 9999 NSW FEW020 BKN070 
     BECMG 2218/2220 07012KT FEW025TCU BKN070
       
TAF MHLM 212300Z 2200/2224 07010KT 5000 -TSRA SCT028CB SCT080 TX34/2221Z
TN24/2212Z 
     BECMG 2202/2204 17005KT 9999 NSW BKN026 BKN080 
     BECMG 2212/2214 FEW026 BKN080 
     BECMG 2220/2222 8000 VCSH BKN028 FEW030CB BKN080
       
TAF MHRO 212300Z 2200/2224 09025KT 9999 FEW025 SCT080 TX31/2219Z TN28/2212Z 
     BECMG 2206/2208 11010KT 
     BECMG 2220/2222 09018KT FEW025
       
TAF MHTG 212300Z 2200/2224 17006KT 5000 RA SCT026TCU FEW028CB BKN080 TX24/2221Z
TN19/2212Z 
     BECMG 2204/2206 VRB04KT 9999 NSW SCT026TCU BKN070 
     BECMG 2209/2211 5000 RA FEW006 BKN026TCU FEW028CB BKN080 
     BECMG 2213/2215 9999 NSW SCT028TCU BKN070 
     BECMG 2220/2222 8000 VCSH